← Previous June 17, 2024 7:27 PM

FTUS43 KOAX 171125
TAFOFK
TAF
KOFK 171125Z 1712/1812 09015KT 6SM -TSRA FEW009 OVC025CB
     FM171400 11015KT P6SM BKN025
     FM171800 17020G30KT P6SM BKN200
     FM180200 17018G30KT P6SM BKN250 WS017/17050KT=